Ida Theresa — V7RQ9 — position and weather

sailwx.info

Track history (hours):
 
Tides and Currents Weather Stations Pressure Air Temp Water Temp Dewpoint Dewpoint Depression Visibility Wind Speed Wind Dir Waves Ship Positions

Ida Theresa

Last reported at 2016-Jul-13 11:22 UTC. Time now 2016-Jul-24 18:32 UTC.
Position N 08°10' W 079°27'.
Warning: this ship's position is 11 days out of date.

Length 121 m; draft 5.8 m.

Type: Ship. MMSI: 538090386.

Date/timePositionNaut miles runAvg speedWind from/ knotsBaromVisibWave heightAir tempDewpointWater temp
2016-Jul-13 11:22N 08°10' W 079°27'1012.9
2016-Jul-13 10:33N 08°20' W 079°27'2813.4
2016-Jul-13 08:26N 08°48' W 079°29'1010.9
2016-Jul-13 07:30N 08°57' W 079°34'3 2.8
2016-Jul-13 06:18N 08°60' W 079°36'1 1.9
2016-Jul-13 05:31N 09°01' W 079°37'2 1.5
2016-Jul-13 04:31N 09°02' W 079°38'7 6.9
2016-Jul-13 03:31N 09°07' W 079°43'6 6.0
2016-Jul-13 02:34N 09°08' W 079°48'8 7.7
2016-Jul-13 01:33N 09°12' W 079°55'4 4.2
2016-Jul-13 00:34N 09°16' W 079°55'0 0.5
2016-Jul-12 23:33N 09°17' W 079°55'1 1.4
2016-Jul-12 22:33N 09°18' W 079°55'4 3.5
2016-Jul-12 21:33N 09°22' W 079°55'1 1.1
2016-Jul-12 20:32N 09°23' W 079°55'0 0.0
2016-Jul-12 19:31N 09°23' W 079°55'0 0.0
2016-Jul-12 18:31N 09°23' W 079°55'0 0.0
2016-Jul-12 17:25N 09°23' W 079°55'0 0.0
2016-Jul-12 16:32N 09°23' W 079°55'0 0.0
2016-Jul-12 15:31N 09°23' W 079°55'0 0.1
2016-Jul-12 14:31N 09°23' W 079°55'0 0.0
2016-Jul-12 13:31N 09°23' W 079°55'0 0.0
2016-Jul-12 12:31N 09°23' W 079°55'0 0.1
2016-Jul-12 11:32N 09°23' W 079°55'0 0.1
2016-Jul-12 10:31N 09°23' W 079°55'0 0.1
2016-Jul-12 09:25N 09°23' W 079°55'0 0.1
2016-Jul-12 08:20N 09°23' W 079°55'0 0.0
2016-Jul-12 07:31N 09°23' W 079°55'0 0.0
2016-Jul-12 06:29N 09°23' W 079°55'0 0.0
2016-Jul-12 05:29N 09°23' W 079°55'0 0.0
2016-Jul-12 04:28N 09°23' W 079°55'0 0.0
2016-Jul-12 03:31N 09°23' W 079°55'0 0.0
2016-Jul-12 02:31N 09°23' W 079°55'0 0.0
2016-Jul-12 01:32N 09°23' W 079°55'0 0.0
2016-Jul-12 00:32N 09°23' W 079°55'0 0.0
2016-Jul-11 23:32N 09°23' W 079°55'0 0.0
2016-Jul-11 22:31N 09°23' W 079°55'0 0.0
2016-Jul-11 21:31N 09°23' W 079°55'0 0.0
2016-Jul-11 20:31N 09°23' W 079°55'0 0.0
2016-Jul-11 19:29N 09°23' W 079°55'0 0.0
2016-Jul-11 18:31N 09°23' W 079°55'0 0.0
2016-Jul-11 17:32N 09°23' W 079°55'0 0.1
2016-Jul-11 16:33N 09°23' W 079°55'4 3.5
2016-Jul-11 15:29N 09°26' W 079°57'0 0.0
2016-Jul-11 14:32N 09°26' W 079°57'0 0.0
2016-Jul-11 13:32N 09°26' W 079°57'0 0.0
2016-Jul-11 12:33N 09°26' W 079°57'0 0.0
2016-Jul-11 11:33N 09°26' W 079°57'0 0.0
2016-Jul-11 10:33N 09°26' W 079°57'0 0.1
2016-Jul-11 09:33N 09°26' W 079°57'1 1.3
2016-Jul-11 08:34N 09°27' W 079°56'10 9.6
2016-Jul-11 07:33N 09°35' W 079°51'1211.6
2016-Jul-11 06:33N 09°46' W 079°46'  
Track history (hours):
 
Tides and Currents Weather Stations Pressure Air Temp Water Temp Dewpoint Dewpoint Depression Visibility Wind Speed Wind Dir Waves Ship Positions

Ida Theresa

Last reported at 2016-Jul-13 11:22 UTC. Time now 2016-Jul-24 18:32 UTC.
Position N 08°10' W 079°27'.
Warning: this ship's position is 11 days out of date.

Length 121 m; draft 5.8 m.

Type: Ship. MMSI: 538090386.

Date/timePositionNaut miles runAvg speedWind from/ knotsBaromVisibWave heightAir tempDewpointWater temp
2016-Jul-13 11:22N 08°10' W 079°27'1012.9
2016-Jul-13 10:33N 08°20' W 079°27'2813.4
2016-Jul-13 08:26N 08°48' W 079°29'1010.9
2016-Jul-13 07:30N 08°57' W 079°34'3 2.8
2016-Jul-13 06:18N 08°60' W 079°36'1 1.9
2016-Jul-13 05:31N 09°01' W 079°37'2 1.5
2016-Jul-13 04:31N 09°02' W 079°38'7 6.9
2016-Jul-13 03:31N 09°07' W 079°43'6 6.0
2016-Jul-13 02:34N 09°08' W 079°48'8 7.7
2016-Jul-13 01:33N 09°12' W 079°55'4 4.2
2016-Jul-13 00:34N 09°16' W 079°55'0 0.5
2016-Jul-12 23:33N 09°17' W 079°55'1 1.4
2016-Jul-12 22:33N 09°18' W 079°55'4 3.5
2016-Jul-12 21:33N 09°22' W 079°55'1 1.1
2016-Jul-12 20:32N 09°23' W 079°55'0 0.0
2016-Jul-12 19:31N 09°23' W 079°55'0 0.0
2016-Jul-12 18:31N 09°23' W 079°55'0 0.0
2016-Jul-12 17:25N 09°23' W 079°55'0 0.0
2016-Jul-12 16:32N 09°23' W 079°55'0 0.0
2016-Jul-12 15:31N 09°23' W 079°55'0 0.1
2016-Jul-12 14:31N 09°23' W 079°55'0 0.0
2016-Jul-12 13:31N 09°23' W 079°55'0 0.0
2016-Jul-12 12:31N 09°23' W 079°55'0 0.1
2016-Jul-12 11:32N 09°23' W 079°55'0 0.1
2016-Jul-12 10:31N 09°23' W 079°55'0 0.1
2016-Jul-12 09:25N 09°23' W 079°55'0 0.1
2016-Jul-12 08:20N 09°23' W 079°55'0 0.0
2016-Jul-12 07:31N 09°23' W 079°55'0 0.0
2016-Jul-12 06:29N 09°23' W 079°55'0 0.0
2016-Jul-12 05:29N 09°23' W 079°55'0 0.0
2016-Jul-12 04:28N 09°23' W 079°55'0 0.0
2016-Jul-12 03:31N 09°23' W 079°55'0 0.0
2016-Jul-12 02:31N 09°23' W 079°55'0 0.0
2016-Jul-12 01:32N 09°23' W 079°55'0 0.0
2016-Jul-12 00:32N 09°23' W 079°55'0 0.0
2016-Jul-11 23:32N 09°23' W 079°55'0 0.0
2016-Jul-11 22:31N 09°23' W 079°55'0 0.0
2016-Jul-11 21:31N 09°23' W 079°55'0 0.0
2016-Jul-11 20:31N 09°23' W 079°55'0 0.0
2016-Jul-11 19:29N 09°23' W 079°55'0 0.0
2016-Jul-11 18:31N 09°23' W 079°55'0 0.0
2016-Jul-11 17:32N 09°23' W 079°55'0 0.1
2016-Jul-11 16:33N 09°23' W 079°55'4 3.5
2016-Jul-11 15:29N 09°26' W 079°57'0 0.0
2016-Jul-11 14:32N 09°26' W 079°57'0 0.0
2016-Jul-11 13:32N 09°26' W 079°57'0 0.0
2016-Jul-11 12:33N 09°26' W 079°57'0 0.0
2016-Jul-11 11:33N 09°26' W 079°57'0 0.0
2016-Jul-11 10:33N 09°26' W 079°57'0 0.1
2016-Jul-11 09:33N 09°26' W 079°57'1 1.3
2016-Jul-11 08:34N 09°27' W 079°56'10 9.6
2016-Jul-11 07:33N 09°35' W 079°51'1211.6
2016-Jul-11 06:33N 09°46' W 079°46'  

Dump ship's entire track history